Time;durP1;ratioP1;P1;durP2;ratioP2;P2;SDS_P1;SDS_P2;PMS_P1;PMS_P2;Temp;Humidity;BMP_temperature;BMP_pressure;BME280_temperature;BME280_humidity;BME280_pressure;Samples;Min_cycle;Max_cycle;Signal;HPM_P1;HPM_P2
2024/02/16 00:00:13;;;;;;;6.22;1.98;;;;;;;;;;5025664;28;20272;-76
2024/02/16 00:02:40;;;;;;;3.75;1.83;;;;;;;;;;5011692;28;20206;-76
2024/02/16 00:05:07;;;;;;;5.88;1.67;;;;;;;;;;5022556;28;20225;-76
2024/02/16 00:07:33;;;;;;;3.03;1.63;;;;;;;;;;5019887;28;20212;-76
2024/02/16 00:09:59;;;;;;;6.38;1.65;;;;;;;;;;5012123;28;20222;-76
2024/02/16 00:12:25;;;;;;;6.63;1.40;;;;;;;;;;5022443;28;20630;-76
2024/02/16 00:14:50;;;;;;;4.53;1.73;;;;;;;;;;5033700;28;20175;-76
2024/02/16 00:17:15;;;;;;;3.85;1.90;;;;;;;;;;5020374;28;20730;-76
2024/02/16 00:19:41;;;;;;;5.00;1.75;;;;;;;;;;5017829;28;20269;-76
2024/02/16 00:22:10;;;;;;;5.70;1.75;;;;;;;;;;5039188;28;20272;-76
2024/02/16 00:24:36;;;;;;;3.53;1.80;;;;;;;;;;5047946;28;20205;-76
2024/02/16 00:27:05;;;;;;;4.53;1.60;;;;;;;;;;5036248;28;20197;-76
2024/02/16 00:29:31;;;;;;;7.13;1.73;;;;;;;;;;5016565;28;20205;-76
2024/02/16 00:31:59;;;;;;;4.28;1.73;;;;;;;;;;5041096;28;20188;-76
2024/02/16 00:34:24;;;;;;;4.25;1.40;;;;;;;;;;5032847;28;20174;-75
2024/02/16 00:36:50;;;;;;;4.88;1.80;;;;;;;;;;5035964;28;20656;-76
2024/02/16 00:39:15;;;;;;;2.88;1.55;;;;;;;;;;5039323;28;20194;-75
2024/02/16 00:41:41;;;;;;;7.07;2.15;;;;;;;;;;5026968;28;20178;-76
2024/02/16 00:44:06;;;;;;;3.63;2.22;;;;;;;;;;5031420;28;20193;-76
2024/02/16 00:46:32;;;;;;;7.10;1.92;;;;;;;;;;5023951;28;20638;-76
2024/02/16 00:48:57;;;;;;;3.60;1.85;;;;;;;;;;5026866;28;20212;-76
2024/02/16 00:51:25;;;;;;;6.38;2.08;;;;;;;;;;5021339;28;20186;-76
2024/02/16 00:53:51;;;;;;;4.43;1.83;;;;;;;;;;5034492;28;20216;-76
2024/02/16 00:56:16;;;;;;;4.97;1.85;;;;;;;;;;5042375;28;20444;-76
2024/02/16 00:58:45;;;;;;;5.25;1.85;;;;;;;;;;5029624;28;20190;-76
2024/02/16 01:01:12;;;;;;;4.13;2.03;;;;;;;;;;5037853;28;20262;-76
2024/02/16 01:03:38;;;;;;;7.45;3.40;;;;;;;;;;5028552;28;20662;-76
2024/02/16 01:06:05;;;;;;;4.63;2.15;;;;;;;;;;5026386;28;20206;-76
2024/02/16 01:08:31;;;;;;;3.22;1.85;;;;;;;;;;5039275;28;20670;-76
2024/02/16 01:10:56;;;;;;;5.32;2.50;;;;;;;;;;5026118;28;20214;-76
2024/02/16 01:13:22;;;;;;;5.80;2.10;;;;;;;;;;5027155;28;20273;-76
2024/02/16 01:15:48;;;;;;;6.95;2.50;;;;;;;;;;5033667;28;20225;-77
2024/02/16 01:18:13;;;;;;;5.97;2.10;;;;;;;;;;5026453;28;20705;-75
2024/02/16 01:20:38;;;;;;;5.93;2.47;;;;;;;;;;5016143;28;20216;-76
2024/02/16 01:23:04;;;;;;;3.70;2.25;;;;;;;;;;5023436;28;20284;-76
2024/02/16 01:25:31;;;;;;;5.97;2.00;;;;;;;;;;5028978;28;20502;-76
2024/02/16 01:27:56;;;;;;;5.85;2.65;;;;;;;;;;5028415;28;20670;-77
2024/02/16 01:30:22;;;;;;;7.35;2.67;;;;;;;;;;5009640;28;20265;-76
2024/02/16 01:32:47;;;;;;;4.22;1.77;;;;;;;;;;5025080;28;20252;-76
2024/02/16 01:35:14;;;;;;;4.55;2.42;;;;;;;;;;5014528;28;20552;-76
2024/02/16 01:37:40;;;;;;;7.90;2.30;;;;;;;;;;5027851;28;20213;-76
2024/02/16 01:40:13;;;;;;;5.32;2.22;;;;;;;;;;5023524;28;20272;-76
2024/02/16 01:42:43;;;;;;;5.30;2.20;;;;;;;;;;5040058;28;20189;-76
2024/02/16 01:45:09;;;;;;;6.60;2.55;;;;;;;;;;5021068;28;20197;-76
2024/02/16 01:47:36;;;;;;;5.80;2.60;;;;;;;;;;5024012;28;20190;-76
2024/02/16 01:50:03;;;;;;;6.75;2.38;;;;;;;;;;5039561;28;20193;-76
2024/02/16 01:52:30;;;;;;;5.80;2.47;;;;;;;;;;5030646;28;20231;-76
2024/02/16 01:54:57;;;;;;;5.55;2.40;;;;;;;;;;5030262;28;20185;-76
2024/02/16 01:57:23;;;;;;;6.03;2.60;;;;;;;;;;5028492;28;20198;-76
2024/02/16 01:59:49;;;;;;;6.28;2.28;;;;;;;;;;5021355;28;20643;-76
2024/02/16 02:02:15;;;;;;;5.68;2.40;;;;;;;;;;5028237;28;20654;-76
2024/02/16 02:04:40;;;;;;;5.93;2.65;;;;;;;;;;5022606;28;20227;-76
2024/02/16 02:07:16;;;;;;;5.30;2.75;;;;;;;;;;5018437;28;20554;-77
2024/02/16 02:09:42;;;;;;;5.32;2.40;;;;;;;;;;5023317;28;20205;-76
2024/02/16 02:12:09;;;;;;;6.05;2.50;;;;;;;;;;5041162;28;20186;-76
2024/02/16 02:14:35;;;;;;;9.50;3.10;;;;;;;;;;5025412;28;20194;-76
2024/02/16 02:17:00;;;;;;;8.82;3.33;;;;;;;;;;5024042;28;20189;-76
2024/02/16 02:19:26;;;;;;;4.75;2.58;;;;;;;;;;5037522;28;20245;-76
2024/02/16 02:21:51;;;;;;;5.13;2.92;;;;;;;;;;5036686;28;20190;-76
2024/02/16 02:24:17;;;;;;;8.02;2.70;;;;;;;;;;5049259;28;20594;-76
2024/02/16 02:26:43;;;;;;;5.70;2.60;;;;;;;;;;5049769;28;20284;-76
2024/02/16 02:29:08;;;;;;;4.60;2.47;;;;;;;;;;5047189;28;20463;-76
2024/02/16 02:31:34;;;;;;;5.65;2.83;;;;;;;;;;5029392;28;20248;-75
2024/02/16 02:34:00;;;;;;;7.78;2.97;;;;;;;;;;5030641;28;20501;-75
2024/02/16 02:36:25;;;;;;;12.52;3.30;;;;;;;;;;5036195;28;20193;-77
2024/02/16 02:38:51;;;;;;;7.90;3.15;;;;;;;;;;5045685;28;20269;-76
2024/02/16 02:41:19;;;;;;;6.15;2.85;;;;;;;;;;5031598;28;20633;-75
2024/02/16 02:43:44;;;;;;;8.05;3.03;;;;;;;;;;5030733;28;20272;-76
2024/02/16 02:46:17;;;;;;;5.60;2.47;;;;;;;;;;5029164;28;20324;-75
2024/02/16 02:48:43;;;;;;;6.78;3.25;;;;;;;;;;5044098;28;20298;-75
2024/02/16 02:51:09;;;;;;;6.50;3.00;;;;;;;;;;5031470;28;20511;-75
2024/02/16 02:53:35;;;;;;;5.82;2.60;;;;;;;;;;5013433;28;20212;-75
2024/02/16 02:56:01;;;;;;;9.73;3.05;;;;;;;;;;5027548;28;20683;-75
2024/02/16 02:58:27;;;;;;;5.70;2.78;;;;;;;;;;5029340;28;20684;-75
2024/02/16 03:00:54;;;;;;;6.00;2.70;;;;;;;;;;5019862;28;20634;-76
2024/02/16 03:03:20;;;;;;;9.13;3.47;;;;;;;;;;5039974;28;20186;-75
2024/02/16 03:05:45;;;;;;;7.75;3.08;;;;;;;;;;5043693;28;20509;-75
2024/02/16 03:08:11;;;;;;;5.97;2.90;;;;;;;;;;5025106;28;20562;-75
2024/02/16 03:10:36;;;;;;;7.85;2.80;;;;;;;;;;5028201;28;20603;-75
2024/02/16 03:13:03;;;;;;;5.00;2.47;;;;;;;;;;5045482;28;20259;-75
2024/02/16 03:15:31;;;;;;;5.32;2.63;;;;;;;;;;5047976;28;20193;-75
2024/02/16 03:17:57;;;;;;;4.00;2.53;;;;;;;;;;5037548;28;20283;-75
2024/02/16 03:20:22;;;;;;;10.98;2.72;;;;;;;;;;5044855;28;20216;-75
2024/02/16 03:22:48;;;;;;;6.70;2.85;;;;;;;;;;5023363;28;20254;-75
2024/02/16 03:25:14;;;;;;;9.18;3.15;;;;;;;;;;5030515;28;20209;-75
2024/02/16 03:27:41;;;;;;;5.13;3.08;;;;;;;;;;5042101;28;20200;-75
2024/02/16 03:30:08;;;;;;;9.55;3.10;;;;;;;;;;5030497;28;20740;-75
2024/02/16 03:32:33;;;;;;;5.30;2.65;;;;;;;;;;5032131;28;20560;-75
2024/02/16 03:34:59;;;;;;;7.15;2.70;;;;;;;;;;5027927;28;20182;-75
2024/02/16 03:37:25;;;;;;;9.02;2.70;;;;;;;;;;5024599;28;20216;-75
2024/02/16 03:39:51;;;;;;;5.57;2.45;;;;;;;;;;5027940;28;20678;-75
2024/02/16 03:42:19;;;;;;;7.53;2.90;;;;;;;;;;5027375;28;20523;-75
2024/02/16 03:44:45;;;;;;;7.43;2.90;;;;;;;;;;5029896;28;20206;-75
2024/02/16 03:47:10;;;;;;;10.50;3.03;;;;;;;;;;5027654;28;20506;-75
2024/02/16 03:49:37;;;;;;;11.13;3.17;;;;;;;;;;5031598;28;20658;-75
2024/02/16 03:52:03;;;;;;;9.20;3.40;;;;;;;;;;5034174;28;20185;-76
2024/02/16 03:54:29;;;;;;;8.32;3.22;;;;;;;;;;5028001;28;20598;-76
2024/02/16 03:56:55;;;;;;;10.32;3.30;;;;;;;;;;5010943;28;20217;-76
2024/02/16 03:59:20;;;;;;;9.60;3.13;;;;;;;;;;5010489;28;20579;-76
2024/02/16 04:01:46;;;;;;;10.07;3.40;;;;;;;;;;5020650;28;20537;-76
2024/02/16 04:04:11;;;;;;;9.10;3.40;;;;;;;;;;5032400;28;20202;-76
2024/02/16 04:06:38;;;;;;;6.55;3.33;;;;;;;;;;5016990;28;20194;-76
2024/02/16 04:09:05;;;;;;;5.78;2.97;;;;;;;;;;5020847;28;20229;-76
2024/02/16 04:11:32;;;;;;;6.18;3.15;;;;;;;;;;5032538;28;20235;-76
2024/02/16 04:13:57;;;;;;;7.40;3.35;;;;;;;;;;5040476;28;20293;-76
2024/02/16 04:16:24;;;;;;;8.88;3.70;;;;;;;;;;5041730;28;20339;-76
2024/02/16 04:18:50;;;;;;;6.53;3.20;;;;;;;;;;5047671;28;20264;-76
2024/02/16 04:21:16;;;;;;;10.70;3.38;;;;;;;;;;5036677;28;20221;-76
2024/02/16 04:23:42;;;;;;;7.38;2.95;;;;;;;;;;5032160;28;20256;-76
2024/02/16 04:26:08;;;;;;;8.10;3.08;;;;;;;;;;5036494;28;20676;-76
2024/02/16 04:28:35;;;;;;;5.57;2.83;;;;;;;;;;5013152;28;20213;-76
2024/02/16 04:31:00;;;;;;;13.90;3.50;;;;;;;;;;5018177;28;20547;-76
2024/02/16 04:33:25;;;;;;;9.00;3.67;;;;;;;;;;5041978;28;20185;-76
2024/02/16 04:35:51;;;;;;;9.02;3.72;;;;;;;;;;5037763;28;20212;-76
2024/02/16 04:38:17;;;;;;;11.57;3.42;;;;;;;;;;5021273;28;20224;-76
2024/02/16 04:40:43;;;;;;;7.47;3.22;;;;;;;;;;5030674;28;20217;-76
2024/02/16 04:43:08;;;;;;;7.20;3.92;;;;;;;;;;5039347;28;20193;-76
2024/02/16 04:45:35;;;;;;;9.70;3.40;;;;;;;;;;5019764;28;20205;-76
2024/02/16 04:48:05;;;;;;;11.13;3.55;;;;;;;;;;5043748;28;20239;-76
2024/02/16 04:50:32;;;;;;;6.30;3.53;;;;;;;;;;5028319;28;20242;-76
2024/02/16 04:52:57;;;;;;;8.35;3.10;;;;;;;;;;5027674;28;20197;-76
2024/02/16 04:55:22;;;;;;;7.70;3.65;;;;;;;;;;5028602;28;20177;-76
2024/02/16 04:57:48;;;;;;;11.25;3.25;;;;;;;;;;5038652;28;20201;-76
2024/02/16 05:00:14;;;;;;;5.95;3.08;;;;;;;;;;5041569;28;20186;-77
2024/02/16 05:02:40;;;;;;;7.70;3.50;;;;;;;;;;5029133;28;20185;-75
2024/02/16 05:05:05;;;;;;;9.30;3.13;;;;;;;;;;5032036;28;20202;-75
2024/02/16 05:07:36;;;;;;;7.82;3.05;;;;;;;;;;5032263;28;20189;-75
2024/02/16 05:10:01;;;;;;;7.03;3.60;;;;;;;;;;5020098;28;20589;-75
2024/02/16 05:12:27;;;;;;;8.32;3.55;;;;;;;;;;5037414;28;20265;-75
2024/02/16 05:14:52;;;;;;;6.47;3.03;;;;;;;;;;5031988;28;20354;-76
2024/02/16 05:17:18;;;;;;;9.48;3.80;;;;;;;;;;5025076;28;20189;-75
2024/02/16 05:19:44;;;;;;;11.52;3.53;;;;;;;;;;5022059;28;20221;-75
2024/02/16 05:22:09;;;;;;;10.23;3.78;;;;;;;;;;5027000;28;20658;-75
2024/02/16 05:24:35;;;;;;;7.00;3.60;;;;;;;;;;5010695;28;20206;-75
2024/02/16 05:27:01;;;;;;;13.63;3.53;;;;;;;;;;5018818;28;20181;-75
2024/02/16 05:29:26;;;;;;;7.55;3.60;;;;;;;;;;5033612;28;20240;-75
2024/02/16 05:31:52;;;;;;;6.75;3.50;;;;;;;;;;5044391;28;20521;-75
2024/02/16 05:34:18;;;;;;;8.73;3.75;;;;;;;;;;5015782;28;20190;-75
2024/02/16 05:36:44;;;;;;;9.15;3.70;;;;;;;;;;5048939;28;20257;-75
2024/02/16 05:39:20;;;;;;;7.05;3.15;;;;;;;;;;5029424;28;20712;-75
2024/02/16 05:41:46;;;;;;;8.45;3.58;;;;;;;;;;5024944;28;20177;-75
2024/02/16 05:44:11;;;;;;;7.88;3.38;;;;;;;;;;5038475;28;20649;-75
2024/02/16 05:46:37;;;;;;;10.57;3.60;;;;;;;;;;5038099;28;20186;-75
2024/02/16 05:49:04;;;;;;;7.28;3.30;;;;;;;;;;5030250;28;20202;-75
2024/02/16 05:51:39;;;;;;;7.68;3.72;;;;;;;;;;5019749;28;20218;-75
2024/02/16 05:54:04;;;;;;;8.65;3.65;;;;;;;;;;5014676;28;20217;-75
2024/02/16 05:56:33;;;;;;;6.80;3.25;;;;;;;;;;5035597;28;20224;-75
2024/02/16 05:58:59;;;;;;;6.97;3.25;;;;;;;;;;5029135;28;20270;-75
2024/02/16 06:01:24;;;;;;;8.25;3.63;;;;;;;;;;5029734;28;20253;-75
2024/02/16 06:03:50;;;;;;;11.63;3.50;;;;;;;;;;5037254;28;20189;-75
2024/02/16 06:06:15;;;;;;;6.65;3.42;;;;;;;;;;5022293;28;20217;-75
2024/02/16 06:08:41;;;;;;;7.38;3.63;;;;;;;;;;5016843;28;20197;-75
2024/02/16 06:11:09;;;;;;;6.57;3.17;;;;;;;;;;5025600;28;20424;-76
2024/02/16 06:13:35;;;;;;;7.85;3.13;;;;;;;;;;5035662;28;20182;-76
2024/02/16 06:16:00;;;;;;;5.63;3.40;;;;;;;;;;5030577;28;20190;-76
2024/02/16 06:18:29;;;;;;;7.38;3.72;;;;;;;;;;5033986;28;20711;-76
2024/02/16 06:20:55;;;;;;;5.60;3.13;;;;;;;;;;5028369;28;20287;-76
2024/02/16 06:23:20;;;;;;;6.65;3.08;;;;;;;;;;5045588;28;20224;-76
2024/02/16 06:25:46;;;;;;;7.63;3.70;;;;;;;;;;5039605;28;20557;-76
2024/02/16 06:28:11;;;;;;;5.30;2.88;;;;;;;;;;5036295;28;20546;-76
2024/02/16 06:30:37;;;;;;;6.95;3.08;;;;;;;;;;5028294;28;20182;-76
2024/02/16 06:33:02;;;;;;;6.75;2.88;;;;;;;;;;5029896;28;20408;-76
2024/02/16 06:35:29;;;;;;;8.90;3.15;;;;;;;;;;5028699;28;20196;-76
2024/02/16 06:37:55;;;;;;;10.02;2.97;;;;;;;;;;5037812;28;20671;-76
2024/02/16 06:40:21;;;;;;;9.90;3.40;;;;;;;;;;5023916;28;20191;-76
2024/02/16 06:42:46;;;;;;;8.77;3.92;;;;;;;;;;5026634;28;20252;-76
2024/02/16 06:45:12;;;;;;;6.05;3.45;;;;;;;;;;5015961;28;20372;-76
2024/02/16 06:47:37;;;;;;;5.78;3.20;;;;;;;;;;5037576;28;20197;-76
2024/02/16 06:50:03;;;;;;;6.60;3.33;;;;;;;;;;5038956;28;20221;-76
2024/02/16 06:52:28;;;;;;;7.40;3.00;;;;;;;;;;5023927;28;20179;-76
2024/02/16 06:54:53;;;;;;;6.88;3.28;;;;;;;;;;5004210;28;20187;-76
2024/02/16 06:57:20;;;;;;;7.35;3.30;;;;;;;;;;5012808;28;20210;-76
2024/02/16 06:59:46;;;;;;;7.20;2.97;;;;;;;;;;5029640;28;20193;-76
2024/02/16 07:02:11;;;;;;;8.07;3.72;;;;;;;;;;5020179;28;20546;-77
2024/02/16 07:04:39;;;;;;;6.40;3.42;;;;;;;;;;5028171;28;20701;-76
2024/02/16 07:07:06;;;;;;;8.65;3.28;;;;;;;;;;5029528;28;20490;-75
2024/02/16 07:09:32;;;;;;;4.78;3.00;;;;;;;;;;5030067;28;20620;-75
2024/02/16 07:11:58;;;;;;;5.97;3.58;;;;;;;;;;5042573;28;20190;-76
2024/02/16 07:14:24;;;;;;;5.82;3.33;;;;;;;;;;5026434;28;20601;-75
2024/02/16 07:16:49;;;;;;;6.50;2.92;;;;;;;;;;5031486;28;20188;-75
2024/02/16 07:19:15;;;;;;;7.05;3.00;;;;;;;;;;5032967;28;20783;-75
2024/02/16 07:21:40;;;;;;;5.70;2.67;;;;;;;;;;5031977;28;20194;-75
2024/02/16 07:24:06;;;;;;;7.03;3.10;;;;;;;;;;5028032;28;20238;-74
2024/02/16 07:26:31;;;;;;;14.20;3.20;;;;;;;;;;5020903;28;20237;-74
2024/02/16 07:28:57;;;;;;;7.78;3.47;;;;;;;;;;5028835;28;20510;-75
2024/02/16 07:31:22;;;;;;;9.05;3.13;;;;;;;;;;5016188;28;20627;-75
2024/02/16 07:33:48;;;;;;;8.63;2.97;;;;;;;;;;5024075;28;20197;-74
2024/02/16 07:36:14;;;;;;;7.82;2.88;;;;;;;;;;5039009;28;20188;-74
2024/02/16 07:38:39;;;;;;;5.30;2.67;;;;;;;;;;5028705;28;20188;-75
2024/02/16 07:41:05;;;;;;;7.60;2.92;;;;;;;;;;5025768;28;20178;-75
2024/02/16 07:43:31;;;;;;;9.98;2.72;;;;;;;;;;5026151;28;20244;-75
2024/02/16 07:45:57;;;;;;;4.47;2.80;;;;;;;;;;5024604;28;20546;-75
2024/02/16 07:48:22;;;;;;;8.25;2.70;;;;;;;;;;5030429;28;20560;-75
2024/02/16 07:50:50;;;;;;;4.93;2.78;;;;;;;;;;5025548;28;20185;-74
2024/02/16 07:53:16;;;;;;;5.50;2.58;;;;;;;;;;5008911;28;20182;-75
2024/02/16 07:55:41;;;;;;;4.28;2.60;;;;;;;;;;5027904;28;20193;-75
2024/02/16 07:58:07;;;;;;;5.63;2.50;;;;;;;;;;5010004;28;20213;-75
2024/02/16 08:00:32;;;;;;;8.60;3.10;;;;;;;;;;5038244;28;20656;-75
2024/02/16 08:02:58;;;;;;;6.10;2.65;;;;;;;;;;5029247;28;20699;-75
2024/02/16 08:05:25;;;;;;;6.55;2.63;;;;;;;;;;5044521;28;20218;-75
2024/02/16 08:07:51;;;;;;;7.80;2.45;;;;;;;;;;5032860;28;20657;-75
2024/02/16 08:10:20;;;;;;;5.55;2.53;;;;;;;;;;5030117;28;20243;-75
2024/02/16 08:12:46;;;;;;;4.82;2.63;;;;;;;;;;5042044;28;20558;-75
2024/02/16 08:15:12;;;;;;;8.38;3.15;;;;;;;;;;5033572;28;20242;-75
2024/02/16 08:17:40;;;;;;;7.70;2.75;;;;;;;;;;5032650;28;20506;-74
2024/02/16 08:20:06;;;;;;;7.07;2.60;;;;;;;;;;5032457;28;20240;-75
2024/02/16 08:22:32;;;;;;;6.00;2.47;;;;;;;;;;5029859;28;20174;-75
2024/02/16 08:24:58;;;;;;;5.43;2.55;;;;;;;;;;5025450;28;20387;-75
2024/02/16 08:27:24;;;;;;;3.58;2.50;;;;;;;;;;5024443;28;20193;-75
2024/02/16 08:29:51;;;;;;;5.35;2.60;;;;;;;;;;5031916;28;20194;-74
2024/02/16 08:32:17;;;;;;;4.53;2.28;;;;;;;;;;5029026;28;20279;-75
2024/02/16 08:34:42;;;;;;;6.90;2.75;;;;;;;;;;5024486;28;20288;-76
2024/02/16 08:37:08;;;;;;;5.38;2.72;;;;;;;;;;5024017;28;20273;-75
2024/02/16 08:39:34;;;;;;;5.50;2.60;;;;;;;;;;5032223;28;20330;-75
2024/02/16 08:42:00;;;;;;;5.50;2.95;;;;;;;;;;5032947;28;20198;-75
2024/02/16 08:44:26;;;;;;;5.18;2.90;;;;;;;;;;5034633;28;20188;-75
2024/02/16 08:46:51;;;;;;;6.05;2.47;;;;;;;;;;5022842;28;20526;-75
2024/02/16 08:49:17;;;;;;;7.65;2.90;;;;;;;;;;5027966;28;20190;-75
2024/02/16 08:51:43;;;;;;;4.95;2.60;;;;;;;;;;5027622;28;20385;-75
2024/02/16 08:54:09;;;;;;;5.78;2.47;;;;;;;;;;5033849;28;20471;-76
2024/02/16 08:56:35;;;;;;;5.43;2.85;;;;;;;;;;5025638;28;20289;-76
2024/02/16 08:59:04;;;;;;;9.52;3.13;;;;;;;;;;5031633;28;20262;-76
2024/02/16 09:01:33;;;;;;;5.70;2.78;;;;;;;;;;5030864;28;20201;-76
2024/02/16 09:03:58;;;;;;;8.32;2.67;;;;;;;;;;5028606;28;20204;-75
2024/02/16 09:06:24;;;;;;;6.20;3.17;;;;;;;;;;5026715;28;20222;-75
2024/02/16 09:08:49;;;;;;;8.48;3.22;;;;;;;;;;5037382;28;20185;-76
2024/02/16 09:11:15;;;;;;;8.07;3.08;;;;;;;;;;5040192;28;20217;-76
2024/02/16 09:13:41;;;;;;;6.95;3.22;;;;;;;;;;5027144;28;20549;-76
2024/02/16 09:16:07;;;;;;;7.07;3.22;;;;;;;;;;5024608;28;20190;-76
2024/02/16 09:18:33;;;;;;;6.18;2.90;;;;;;;;;;5038735;28;20226;-75
2024/02/16 09:20:59;;;;;;;5.45;2.72;;;;;;;;;;5034123;28;20276;-76
2024/02/16 09:23:25;;;;;;;5.43;3.30;;;;;;;;;;5031001;28;20760;-76
2024/02/16 09:25:51;;;;;;;9.05;3.13;;;;;;;;;;5026749;28;20210;-76
2024/02/16 09:28:18;;;;;;;6.22;2.90;;;;;;;;;;5008334;28;20194;-76
2024/02/16 09:30:44;;;;;;;8.90;3.60;;;;;;;;;;5046215;28;20676;-76
2024/02/16 09:33:10;;;;;;;6.05;2.92;;;;;;;;;;5041511;28;20186;-76
2024/02/16 09:35:35;;;;;;;4.38;2.90;;;;;;;;;;5040074;28;20205;-77
2024/02/16 09:38:01;;;;;;;9.23;3.13;;;;;;;;;;5035715;28;20369;-76
2024/02/16 09:40:26;;;;;;;7.57;3.40;;;;;;;;;;5042374;28;20544;-76
2024/02/16 09:42:52;;;;;;;6.78;3.35;;;;;;;;;;5032126;28;20251;-76
2024/02/16 09:45:17;;;;;;;8.75;3.25;;;;;;;;;;5049036;28;20300;-75
2024/02/16 09:47:46;;;;;;;4.90;3.28;;;;;;;;;;5031430;28;20236;-76
2024/02/16 09:50:12;;;;;;;6.82;3.42;;;;;;;;;;5044460;28;20572;-76
2024/02/16 09:52:38;;;;;;;5.93;3.25;;;;;;;;;;5047804;28;20197;-76
2024/02/16 09:55:07;;;;;;;8.48;3.60;;;;;;;;;;5031830;28;20196;-76
2024/02/16 09:57:32;;;;;;;5.90;3.08;;;;;;;;;;5033191;28;20201;-76
2024/02/16 09:59:59;;;;;;;7.50;3.30;;;;;;;;;;5029847;28;20216;-76
2024/02/16 10:02:24;;;;;;;7.50;3.67;;;;;;;;;;5029470;28;20592;-77
2024/02/16 10:04:50;;;;;;;7.70;3.80;;;;;;;;;;5036935;28;20268;-76
2024/02/16 10:07:15;;;;;;;6.25;3.40;;;;;;;;;;5031676;28;20178;-76
2024/02/16 10:09:41;;;;;;;8.98;3.65;;;;;;;;;;5034220;28;20188;-76
2024/02/16 10:12:06;;;;;;;5.93;3.35;;;;;;;;;;5032684;28;20222;-76
2024/02/16 10:14:32;;;;;;;7.65;3.72;;;;;;;;;;5045010;28;20186;-76
2024/02/16 10:17:02;;;;;;;6.55;3.97;;;;;;;;;;5014007;28;20641;-76
2024/02/16 10:19:36;;;;;;;4.43;3.30;;;;;;;;;;5029251;28;20261;-76
2024/02/16 10:22:07;;;;;;;6.85;3.53;;;;;;;;;;5026853;28;20602;-76
2024/02/16 10:24:32;;;;;;;6.40;3.60;;;;;;;;;;5026162;28;20186;-76
2024/02/16 10:26:58;;;;;;;9.68;3.72;;;;;;;;;;5030278;28;20245;-77
2024/02/16 10:29:26;;;;;;;8.15;3.83;;;;;;;;;;5030423;28;20193;-76
2024/02/16 10:31:52;;;;;;;9.13;4.07;;;;;;;;;;5028809;28;20182;-76
2024/02/16 10:34:18;;;;;;;8.13;3.65;;;;;;;;;;5031551;28;20397;-78
2024/02/16 10:36:44;;;;;;;6.93;3.88;;;;;;;;;;5029143;28;20213;-76
2024/02/16 10:39:11;;;;;;;7.35;3.90;;;;;;;;;;5021515;28;20194;-76
2024/02/16 10:41:41;;;;;;;6.78;4.03;;;;;;;;;;5037870;28;20274;-76
2024/02/16 10:44:06;;;;;;;10.00;3.90;;;;;;;;;;5010379;28;20199;-76
2024/02/16 10:46:33;;;;;;;9.73;4.07;;;;;;;;;;5037602;28;20213;-78
2024/02/16 10:48:59;;;;;;;6.55;4.03;;;;;;;;;;5029687;28;20186;-76
2024/02/16 10:51:34;;;;;;;9.32;3.78;;;;;;;;;;5030108;28;20192;-76
2024/02/16 10:54:01;;;;;;;9.02;3.90;;;;;;;;;;5032860;28;20181;-75
2024/02/16 10:56:37;;;;;;;11.70;4.82;;;;;;;;;;5009240;28;20619;-75
2024/02/16 10:59:08;;;;;;;8.68;4.53;;;;;;;;;;5025117;28;20221;-75
2024/02/16 11:01:41;;;;;;;12.10;4.35;;;;;;;;;;5030335;28;20232;-74
2024/02/16 11:04:18;;;;;;;7.00;3.95;;;;;;;;;;5028196;28;20194;-74
2024/02/16 11:06:56;;;;;;;7.95;4.40;;;;;;;;;;5030101;28;20455;-75
2024/02/16 11:09:29;;;;;;;10.88;4.20;;;;;;;;;;5012519;28;20300;-74
2024/02/16 11:11:59;;;;;;;8.57;4.28;;;;;;;;;;5040891;28;20261;-75
2024/02/16 11:14:34;;;;;;;8.18;4.70;;;;;;;;;;5029072;28;20359;-75
2024/02/16 11:16:59;;;;;;;8.38;4.97;;;;;;;;;;5020638;28;20170;-74
2024/02/16 11:19:25;;;;;;;14.10;4.90;;;;;;;;;;5027865;28;20574;-74
2024/02/16 11:22:07;;;;;;;7.13;5.10;;;;;;;;;;5033585;28;20261;-74
2024/02/16 11:24:33;;;;;;;10.10;5.68;;;;;;;;;;5048675;28;20189;-75
2024/02/16 11:27:02;;;;;;;8.55;5.00;;;;;;;;;;5014348;28;20236;-74
2024/02/16 11:29:34;;;;;;;9.60;5.28;;;;;;;;;;5028609;28;20264;-75
2024/02/16 11:32:03;;;;;;;8.82;5.65;;;;;;;;;;5037353;28;20277;-75
2024/02/16 11:34:30;;;;;;;12.30;5.90;;;;;;;;;;5038534;28;20749;-75
2024/02/16 11:36:56;;;;;;;10.50;6.00;;;;;;;;;;5028236;28;20186;-74
2024/02/16 11:39:22;;;;;;;8.73;5.50;;;;;;;;;;5038266;28;20220;-75
2024/02/16 11:41:48;;;;;;;11.88;6.00;;;;;;;;;;5038489;28;20194;-74
2024/02/16 11:44:17;;;;;;;13.18;6.00;;;;;;;;;;5031146;28;20194;-74
2024/02/16 11:46:42;;;;;;;11.02;6.38;;;;;;;;;;5044237;28;20213;-74
2024/02/16 11:49:09;;;;;;;12.98;7.40;;;;;;;;;;5025690;28;20659;-75
2024/02/16 11:51:34;;;;;;;12.18;7.15;;;;;;;;;;5037873;28;20643;-76
2024/02/16 11:54:00;;;;;;;10.82;7.35;;;;;;;;;;5029602;28;20268;-75
2024/02/16 11:56:26;;;;;;;9.98;7.68;;;;;;;;;;5026506;28;20182;-75
2024/02/16 11:58:55;;;;;;;17.00;8.05;;;;;;;;;;5028254;28;20193;-76
2024/02/16 12:01:26;;;;;;;15.27;8.15;;;;;;;;;;5031392;28;20189;-76
2024/02/16 12:03:52;;;;;;;12.55;8.73;;;;;;;;;;5029312;28;20216;-75
2024/02/16 12:06:24;;;;;;;13.80;9.38;;;;;;;;;;5029999;28;20202;-76
2024/02/16 12:08:52;;;;;;;13.35;10.15;;;;;;;;;;5026912;28;20198;-76
2024/02/16 12:11:17;;;;;;;17.80;11.13;;;;;;;;;;5013983;28;20543;-77
2024/02/16 12:13:44;;;;;;;16.33;11.55;;;;;;;;;;5006458;28;20244;-75
2024/02/16 12:16:10;;;;;;;19.13;12.23;;;;;;;;;;5018488;28;20238;-75
2024/02/16 12:18:36;;;;;;;18.90;12.00;;;;;;;;;;5008688;28;20237;-76
2024/02/16 12:21:05;;;;;;;18.88;12.25;;;;;;;;;;5040133;28;20605;-76
2024/02/16 12:23:31;;;;;;;19.75;13.15;;;;;;;;;;5023617;28;20185;-76
2024/02/16 12:25:57;;;;;;;18.52;13.23;;;;;;;;;;5033893;28;20233;-75
2024/02/16 12:28:28;;;;;;;19.33;12.48;;;;;;;;;;5029713;28;20213;-76
2024/02/16 12:30:56;;;;;;;18.48;13.63;;;;;;;;;;5029800;28;20196;-75
2024/02/16 12:33:22;;;;;;;19.77;12.80;;;;;;;;;;5030629;28;20190;-75
2024/02/16 12:35:48;;;;;;;17.60;13.18;;;;;;;;;;5035011;28;20182;-75
2024/02/16 12:38:16;;;;;;;20.13;12.82;;;;;;;;;;5034939;28;20178;-75
2024/02/16 12:40:42;;;;;;;20.00;13.10;;;;;;;;;;5033469;28;20291;-75
2024/02/16 12:43:10;;;;;;;16.83;12.48;;;;;;;;;;5027828;28;20668;-75
2024/02/16 12:45:36;;;;;;;16.75;12.18;;;;;;;;;;5020841;28;20193;-76
2024/02/16 12:48:03;;;;;;;16.00;12.43;;;;;;;;;;5031893;28;20194;-75
2024/02/16 12:50:29;;;;;;;20.17;13.25;;;;;;;;;;5028433;28;20186;-75
2024/02/16 12:52:55;;;;;;;17.15;12.18;;;;;;;;;;5028522;28;20190;-75
2024/02/16 12:55:20;;;;;;;16.88;12.30;;;;;;;;;;5027844;28;20727;-75
2024/02/16 12:57:46;;;;;;;20.02;12.52;;;;;;;;;;5028683;28;20673;-75
2024/02/16 13:00:12;;;;;;;17.30;12.73;;;;;;;;;;5019867;28;20673;-76
2024/02/16 13:02:37;;;;;;;18.83;12.43;;;;;;;;;;5013779;28;20195;-75
2024/02/16 13:05:03;;;;;;;17.30;11.82;;;;;;;;;;5046334;28;20221;-75
2024/02/16 13:07:28;;;;;;;16.63;12.45;;;;;;;;;;5048455;28;20276;-75
2024/02/16 13:09:54;;;;;;;15.95;12.30;;;;;;;;;;5031090;28;20186;-75
2024/02/16 13:12:22;;;;;;;16.15;11.90;;;;;;;;;;5019753;28;20179;-75
2024/02/16 13:14:48;;;;;;;16.05;12.00;;;;;;;;;;5055477;28;20186;-75
2024/02/16 13:17:13;;;;;;;15.10;12.00;;;;;;;;;;5037288;28;20652;-74
2024/02/16 13:19:39;;;;;;;13.60;11.88;;;;;;;;;;5030021;28;20570;-74
2024/02/16 13:22:04;;;;;;;15.52;12.02;;;;;;;;;;5034957;28;20204;-76
2024/02/16 13:24:30;;;;;;;15.20;12.13;;;;;;;;;;5032773;28;20194;-75
2024/02/16 13:26:56;;;;;;;18.73;12.57;;;;;;;;;;5042301;28;20274;-75
2024/02/16 13:29:21;;;;;;;15.68;11.65;;;;;;;;;;5030769;28;20676;-75
2024/02/16 13:31:47;;;;;;;16.83;12.02;;;;;;;;;;5044760;28;20507;-76
2024/02/16 13:34:14;;;;;;;13.20;10.82;;;;;;;;;;5032615;28;20189;-75
2024/02/16 13:36:41;;;;;;;13.38;10.23;;;;;;;;;;5032288;28;20192;-76
2024/02/16 13:39:06;;;;;;;15.52;11.23;;;;;;;;;;5040230;28;20636;-76
2024/02/16 13:41:33;;;;;;;12.35;10.63;;;;;;;;;;5013195;28;20193;-75
2024/02/16 13:43:58;;;;;;;13.15;9.63;;;;;;;;;;5036786;28;20182;-76
2024/02/16 13:46:24;;;;;;;12.25;9.50;;;;;;;;;;5041912;28;20213;-76
2024/02/16 13:48:49;;;;;;;12.20;9.07;;;;;;;;;;5033623;28;20186;-75
2024/02/16 13:51:14;;;;;;;13.52;8.77;;;;;;;;;;5038117;28;20189;-76
2024/02/16 13:53:40;;;;;;;12.27;9.95;;;;;;;;;;5034960;28;20178;-75
2024/02/16 13:56:06;;;;;;;12.88;9.02;;;;;;;;;;5043846;28;20239;-75
2024/02/16 13:58:31;;;;;;;10.82;9.23;;;;;;;;;;5041688;28;20192;-75
2024/02/16 14:00:59;;;;;;;12.35;9.68;;;;;;;;;;5047031;28;20597;-74
2024/02/16 14:03:24;;;;;;;11.95;7.72;;;;;;;;;;5031084;28;20672;-75
2024/02/16 14:05:51;;;;;;;9.13;7.13;;;;;;;;;;5028689;28;20205;-75
2024/02/16 14:08:17;;;;;;;9.15;6.28;;;;;;;;;;5022622;28;20194;-74
2024/02/16 14:10:43;;;;;;;7.15;5.70;;;;;;;;;;5032788;28;20182;-74
2024/02/16 14:13:09;;;;;;;8.73;6.45;;;;;;;;;;5032813;28;20613;-75
2024/02/16 14:15:35;;;;;;;7.10;6.07;;;;;;;;;;5024655;28;20740;-75
2024/02/16 14:18:00;;;;;;;6.60;5.43;;;;;;;;;;5012017;28;20317;-75
2024/02/16 14:20:26;;;;;;;6.85;5.35;;;;;;;;;;5027325;28;20194;-75
2024/02/16 14:22:51;;;;;;;7.50;5.75;;;;;;;;;;5035187;28;20245;-75
2024/02/16 14:25:18;;;;;;;6.70;5.20;;;;;;;;;;5027530;28;20610;-75
2024/02/16 14:27:44;;;;;;;6.95;5.32;;;;;;;;;;5029509;28;20197;-75
2024/02/16 14:30:13;;;;;;;6.00;5.03;;;;;;;;;;5032521;28;20666;-75
2024/02/16 14:32:39;;;;;;;7.05;5.45;;;;;;;;;;5025457;28;20276;-75